CheckWX is a tool to help pilots better visualize weather data.  It is not intended as a substitute for an official pre-flight weather briefing.

10:39:47 UTC

KEGE TAF
Eagle County Regional Airport
Eagle, Colorado, USA
KEGE 170527Z 1706/1806 15006KT P6SM SCT120 BKN250 FM171600 22007KT P6SM VCSH SCT060 BKN150 FM171900 23018G31KT P6SM VCSH SCT070 BKN100 FM180000 22016G27KT P6SM FEW050 FEW120 FM180300 25005KT P6SM FEW180

Sep-17@
06:00 UTC

Sep-17 @ 06:00 UTC

Sep-17@
16:00 UTC

Sep-17 @ 16:00 UTC

KEGE 170527Z 1706/1806 15006KT P6SM SCT120 BKN250
Wind
  • 150° at 6 KTS
Cloud Levels
  • Scattered at 12,000' AGL
  • Broken at 25,000' AGL

Sep-17@
16:00 UTC

Sep-17 @ 16:00 UTC

Sep-17@
19:00 UTC

Sep-17 @ 19:00 UTC

FM171600 22007KT P6SM VCSH SCT060 BKN150

From

From Standard forecast or significant change

Wind
  • 220° at 7 KTS
Cloud Levels
  • Scattered at 6,000' AGL
  • Broken at 15,000' AGL

Sep-17@
19:00 UTC

Sep-17 @ 19:00 UTC

Sep-18@
00:00 UTC

Sep-18 @ 00:00 UTC

FM171900 23018G31KT P6SM VCSH SCT070 BKN100

From

From Standard forecast or significant change

Wind
  • 230° at 18 KTS
  • {Gusting to 31 KTS
Cloud Levels
  • Scattered at 7,000' AGL
  • Broken at 10,000' AGL

Sep-18@
00:00 UTC

Sep-18 @ 00:00 UTC

Sep-18@
03:00 UTC

Sep-18 @ 03:00 UTC

FM180000 22016G27KT P6SM FEW050 FEW120

From

From Standard forecast or significant change

Wind
  • 220° at 16 KTS
  • {Gusting to 27 KTS
Cloud Levels
  • Few at 5,000' AGL
  • Few at 12,000' AGL

Sep-18@
03:00 UTC

Sep-18 @ 03:00 UTC

Sep-18@
06:00 UTC

Sep-18 @ 06:00 UTC

FM180300 25005KT P6SM FEW180

From

From Standard forecast or significant change

Wind
  • 250° at 5 KTS
Cloud Levels
  • Few at 18,000' AGL